Time;durP1;ratioP1;P1;durP2;ratioP2;P2;SDS_P1;SDS_P2;PMS_P1;PMS_P2;Temp;Humidity;BMP_temperature;BMP_pressure;BME280_temperature;BME280_humidity;BME280_pressure;Samples;Min_cycle;Max_cycle;Signal;HPM_P1;HPM_P2
2022/06/30 00:00:16;;;;;;;17.60;15.80;;;;;;;;;;5053333;28;20063;-75
2022/06/30 00:02:42;;;;;;;17.88;15.57;;;;;;;;;;5053095;28;20069;-75
2022/06/30 00:05:09;;;;;;;18.10;16.13;;;;;;;;;;5054109;28;20173;-75
2022/06/30 00:07:35;;;;;;;20.90;16.63;;;;;;;;;;5052622;28;20037;-75
2022/06/30 00:10:01;;;;;;;18.55;16.48;;;;;;;;;;5054294;28;20119;-74
2022/06/30 00:12:27;;;;;;;21.33;17.17;;;;;;;;;;5054449;28;20044;-75
2022/06/30 00:14:53;;;;;;;17.90;16.00;;;;;;;;;;5053097;28;20041;-75
2022/06/30 00:17:19;;;;;;;18.63;15.70;;;;;;;;;;5053837;28;20401;-77
2022/06/30 00:19:45;;;;;;;16.73;15.00;;;;;;;;;;5053308;28;20048;-75
2022/06/30 00:22:12;;;;;;;18.42;15.60;;;;;;;;;;5051513;28;20044;-75
2022/06/30 00:24:38;;;;;;;17.90;15.13;;;;;;;;;;5053821;28;20142;-75
2022/06/30 00:27:05;;;;;;;19.45;15.10;;;;;;;;;;5053248;28;20073;-75
2022/06/30 00:29:32;;;;;;;21.27;15.43;;;;;;;;;;5052478;28;20111;-75
2022/06/30 00:31:58;;;;;;;18.50;14.73;;;;;;;;;;5053216;28;20072;-75
2022/06/30 00:34:24;;;;;;;19.10;15.32;;;;;;;;;;5052195;28;20485;-74
2022/06/30 00:36:50;;;;;;;16.90;15.00;;;;;;;;;;5053706;28;20048;-74
2022/06/30 00:39:16;;;;;;;17.75;15.27;;;;;;;;;;5052493;28;20037;-74
2022/06/30 00:41:43;;;;;;;17.17;15.38;;;;;;;;;;5022591;28;20482;-75
2022/06/30 00:44:11;;;;;;;17.33;14.35;;;;;;;;;;5052151;28;20456;-75
2022/06/30 00:46:37;;;;;;;18.33;14.93;;;;;;;;;;5053200;28;20057;-75
2022/06/30 00:49:04;;;;;;;16.40;14.70;;;;;;;;;;5053680;28;20389;-75
2022/06/30 00:51:30;;;;;;;16.25;14.10;;;;;;;;;;5085610;28;20037;-75
2022/06/30 00:53:56;;;;;;;17.13;13.43;;;;;;;;;;5051650;28;20136;-75
2022/06/30 00:56:26;;;;;;;15.88;13.75;;;;;;;;;;5019033;28;20049;-75
2022/06/30 00:58:53;;;;;;;13.07;10.98;;;;;;;;;;5053444;28;20037;-75
2022/06/30 01:01:19;;;;;;;16.02;13.35;;;;;;;;;;5051782;28;20490;-74
2022/06/30 01:03:46;;;;;;;14.98;12.68;;;;;;;;;;5051595;28;20498;-74
2022/06/30 01:06:12;;;;;;;16.23;12.88;;;;;;;;;;5051915;28;20041;-74
2022/06/30 01:08:38;;;;;;;14.52;12.80;;;;;;;;;;5051602;28;20049;-75
2022/06/30 01:13:49;;;;;;;15.20;10.48;;;;;;;;;;5053243;28;20076;-74
2022/06/30 01:16:16;;;;;;;13.25;11.38;;;;;;;;;;5052959;28;20174;-74
2022/06/30 01:18:42;;;;;;;12.55;10.88;;;;;;;;;;5052756;28;20116;-75
2022/06/30 01:21:08;;;;;;;12.45;10.23;;;;;;;;;;5053049;28;20029;-75
2022/06/30 01:23:34;;;;;;;11.65;10.23;;;;;;;;;;5051146;28;20041;-74
2022/06/30 01:26:00;;;;;;;14.48;10.95;;;;;;;;;;5052532;28;20138;-75
2022/06/30 01:28:26;;;;;;;15.43;10.95;;;;;;;;;;5051034;28;20171;-75
2022/06/30 01:30:52;;;;;;;13.20;10.82;;;;;;;;;;5051321;28;20037;-75
2022/06/30 01:33:18;;;;;;;13.18;10.27;;;;;;;;;;5051256;28;20036;-75
2022/06/30 01:35:44;;;;;;;10.55;9.45;;;;;;;;;;5050570;28;20041;-75
2022/06/30 01:38:11;;;;;;;11.15;9.18;;;;;;;;;;5051384;28;20032;-74
2022/06/30 01:40:37;;;;;;;10.65;9.52;;;;;;;;;;5050844;28;20110;-74
2022/06/30 01:43:11;;;;;;;12.18;8.30;;;;;;;;;;5051771;28;20413;-74
2022/06/30 01:45:37;;;;;;;11.05;8.40;;;;;;;;;;5050958;28;20044;-74
2022/06/30 01:48:03;;;;;;;12.38;8.48;;;;;;;;;;5051423;28;20405;-74
2022/06/30 01:50:30;;;;;;;10.25;8.02;;;;;;;;;;5052277;28;20044;-74
2022/06/30 01:52:57;;;;;;;9.15;7.10;;;;;;;;;;5052824;28;20402;-74
2022/06/30 01:55:24;;;;;;;10.05;7.75;;;;;;;;;;5051978;28;20048;-74
2022/06/30 01:57:50;;;;;;;8.00;7.15;;;;;;;;;;5050856;28;20378;-74
2022/06/30 02:00:18;;;;;;;10.60;7.10;;;;;;;;;;5052111;28;20041;-75
2022/06/30 02:02:44;;;;;;;8.45;7.10;;;;;;;;;;5040690;28;20371;-74
2022/06/30 02:05:10;;;;;;;10.57;7.50;;;;;;;;;;5050322;28;20041;-74
2022/06/30 02:07:36;;;;;;;7.88;6.82;;;;;;;;;;5050243;28;20033;-74
2022/06/30 02:10:10;;;;;;;7.28;6.25;;;;;;;;;;5050966;28;20163;-74
2022/06/30 02:12:46;;;;;;;8.18;6.25;;;;;;;;;;5050496;28;20036;-74
2022/06/30 02:15:20;;;;;;;7.30;6.43;;;;;;;;;;5050835;28;20033;-74
2022/06/30 02:17:47;;;;;;;7.85;6.65;;;;;;;;;;5033711;28;20036;-74
2022/06/30 02:20:18;;;;;;;9.70;6.68;;;;;;;;;;5051380;28;20045;-74
2022/06/30 02:22:44;;;;;;;9.90;6.43;;;;;;;;;;5050789;28;20152;-74
2022/06/30 02:25:10;;;;;;;8.45;6.55;;;;;;;;;;5050665;28;20048;-74
2022/06/30 02:27:36;;;;;;;7.55;6.32;;;;;;;;;;5050108;28;20120;-74
2022/06/30 02:30:04;;;;;;;9.43;6.45;;;;;;;;;;5050375;28;20073;-74
2022/06/30 02:32:30;;;;;;;9.15;6.75;;;;;;;;;;5034057;28;20037;-74
2022/06/30 02:34:56;;;;;;;7.60;6.78;;;;;;;;;;5078451;28;20041;-74
2022/06/30 02:37:22;;;;;;;8.30;6.72;;;;;;;;;;5061344;28;20045;-74
2022/06/30 02:39:48;;;;;;;9.35;6.30;;;;;;;;;;5033685;28;20543;-74
2022/06/30 02:42:14;;;;;;;8.63;6.50;;;;;;;;;;5052065;28;20037;-74
2022/06/30 02:44:40;;;;;;;11.88;6.63;;;;;;;;;;5035593;28;20045;-74
2022/06/30 02:47:06;;;;;;;8.27;6.43;;;;;;;;;;5054550;28;20041;-74
2022/06/30 02:49:32;;;;;;;9.05;6.80;;;;;;;;;;5055218;28;20482;-74
2022/06/30 02:51:58;;;;;;;7.10;6.30;;;;;;;;;;5041988;28;20040;-74
2022/06/30 02:54:24;;;;;;;7.40;6.57;;;;;;;;;;5054742;28;20057;-74
2022/06/30 02:56:51;;;;;;;8.50;6.72;;;;;;;;;;5020783;28;20052;-74
2022/06/30 02:59:17;;;;;;;9.02;6.25;;;;;;;;;;5037778;28;20052;-74
2022/06/30 03:01:43;;;;;;;8.55;6.82;;;;;;;;;;5037073;28;20130;-74
2022/06/30 03:04:09;;;;;;;8.70;6.90;;;;;;;;;;5056152;28;20048;-74
2022/06/30 03:06:35;;;;;;;7.30;6.50;;;;;;;;;;5055153;28;20043;-74
2022/06/30 03:09:02;;;;;;;8.27;6.50;;;;;;;;;;5053996;28;20045;-74
2022/06/30 03:11:28;;;;;;;7.70;6.68;;;;;;;;;;5054173;28;20132;-74
2022/06/30 03:13:54;;;;;;;9.73;6.40;;;;;;;;;;5053806;28;20448;-74
2022/06/30 03:16:21;;;;;;;10.70;6.32;;;;;;;;;;5054060;28;20045;-74
2022/06/30 03:18:47;;;;;;;11.27;6.70;;;;;;;;;;5054477;28;20033;-75
2022/06/30 03:21:13;;;;;;;9.23;6.70;;;;;;;;;;5054297;28;20033;-74
2022/06/30 03:23:39;;;;;;;10.40;6.95;;;;;;;;;;5054842;28;20116;-74
2022/06/30 03:26:05;;;;;;;10.90;7.00;;;;;;;;;;5053916;28;20120;-74
2022/06/30 03:28:31;;;;;;;8.10;6.63;;;;;;;;;;5053641;28;20052;-74
2022/06/30 03:30:58;;;;;;;10.40;6.70;;;;;;;;;;5050891;28;20133;-75
2022/06/30 03:33:24;;;;;;;10.48;7.03;;;;;;;;;;5053713;28;20079;-74
2022/06/30 03:35:51;;;;;;;7.97;6.72;;;;;;;;;;5037221;28;20127;-74
2022/06/30 03:38:17;;;;;;;9.98;6.40;;;;;;;;;;5053391;28;20041;-74
2022/06/30 03:40:43;;;;;;;8.80;6.72;;;;;;;;;;5054493;28;20120;-75
2022/06/30 03:43:09;;;;;;;10.45;6.70;;;;;;;;;;5053273;28;20056;-75
2022/06/30 03:45:36;;;;;;;10.00;6.90;;;;;;;;;;5054048;28;20037;-76
2022/06/30 03:48:06;;;;;;;8.98;6.53;;;;;;;;;;5053189;28;20046;-75
2022/06/30 03:50:32;;;;;;;7.53;5.97;;;;;;;;;;5037288;28;20041;-75
2022/06/30 03:52:59;;;;;;;8.65;6.72;;;;;;;;;;5036078;28;20044;-74
2022/06/30 03:55:25;;;;;;;9.68;6.68;;;;;;;;;;5054622;28;20416;-74
2022/06/30 03:57:51;;;;;;;9.10;6.80;;;;;;;;;;5051956;28;20056;-75
2022/06/30 04:00:18;;;;;;;8.32;5.95;;;;;;;;;;5050937;28;20048;-73
2022/06/30 04:02:44;;;;;;;9.48;6.15;;;;;;;;;;5048540;28;20119;-74
2022/06/30 04:05:10;;;;;;;8.63;6.50;;;;;;;;;;5053656;28;20115;-74
2022/06/30 04:07:43;;;;;;;9.88;6.65;;;;;;;;;;5052709;28;20048;-74
2022/06/30 04:10:10;;;;;;;8.02;6.75;;;;;;;;;;5052805;28;20064;-74
2022/06/30 04:12:36;;;;;;;6.88;6.18;;;;;;;;;;5052460;28;20112;-74
2022/06/30 04:15:02;;;;;;;7.75;6.20;;;;;;;;;;5052435;28;20559;-74
2022/06/30 04:17:28;;;;;;;9.93;6.50;;;;;;;;;;5052797;28;20120;-74
2022/06/30 04:19:54;;;;;;;10.32;6.97;;;;;;;;;;5052293;28;20090;-74
2022/06/30 04:22:20;;;;;;;8.48;6.30;;;;;;;;;;5035682;28;20036;-74
2022/06/30 04:24:46;;;;;;;7.60;6.38;;;;;;;;;;5052319;28;20037;-74
2022/06/30 04:27:12;;;;;;;9.23;6.10;;;;;;;;;;5036912;28;20178;-75
2022/06/30 04:29:38;;;;;;;8.13;5.97;;;;;;;;;;5054965;28;20044;-74
2022/06/30 04:34:49;;;;;;;7.97;5.75;;;;;;;;;;5040650;28;20044;-74
2022/06/30 04:37:16;;;;;;;8.57;6.00;;;;;;;;;;5052415;28;20048;-74
2022/06/30 04:39:42;;;;;;;7.80;5.72;;;;;;;;;;5035593;28;20029;-73
2022/06/30 04:42:08;;;;;;;6.97;5.68;;;;;;;;;;5051879;28;20037;-74
2022/06/30 04:44:34;;;;;;;6.35;5.03;;;;;;;;;;5052512;28;20068;-74
2022/06/30 04:47:00;;;;;;;11.00;5.82;;;;;;;;;;5051406;28;20083;-74
2022/06/30 04:49:26;;;;;;;6.68;5.70;;;;;;;;;;5066307;28;20082;-74
2022/06/30 04:51:53;;;;;;;7.55;5.40;;;;;;;;;;5051960;28;20045;-74
2022/06/30 04:54:19;;;;;;;6.20;5.57;;;;;;;;;;5052747;28;20107;-74
2022/06/30 04:56:45;;;;;;;8.82;5.72;;;;;;;;;;5051911;28;20045;-74
2022/06/30 04:59:11;;;;;;;6.45;5.32;;;;;;;;;;5051329;28;20041;-74
2022/06/30 05:01:37;;;;;;;7.70;5.30;;;;;;;;;;5022361;28;20043;-74
2022/06/30 05:04:03;;;;;;;7.57;5.63;;;;;;;;;;5051432;28;20048;-74
2022/06/30 05:06:29;;;;;;;7.95;5.57;;;;;;;;;;5051336;28;20125;-74
2022/06/30 05:08:55;;;;;;;7.05;5.28;;;;;;;;;;5034920;28;20095;-75
2022/06/30 05:11:21;;;;;;;6.43;5.20;;;;;;;;;;5052292;28;20500;-74
2022/06/30 05:13:47;;;;;;;6.55;5.53;;;;;;;;;;5046217;28;20077;-74
2022/06/30 05:16:13;;;;;;;6.40;5.70;;;;;;;;;;5041978;28;20041;-74
2022/06/30 05:18:39;;;;;;;6.38;5.40;;;;;;;;;;5032296;28;20062;-73
2022/06/30 05:21:05;;;;;;;7.57;5.38;;;;;;;;;;5050118;28;20043;-74
2022/06/30 05:23:31;;;;;;;5.85;4.90;;;;;;;;;;5048513;28;20037;-74
2022/06/30 05:28:42;;;;;;;6.88;4.80;;;;;;;;;;5051405;28;20490;-74
2022/06/30 05:31:08;;;;;;;7.38;5.32;;;;;;;;;;5034460;28;20604;-74
2022/06/30 05:33:34;;;;;;;8.02;5.40;;;;;;;;;;5051232;28;20044;-74
2022/06/30 05:36:00;;;;;;;6.40;5.38;;;;;;;;;;5034126;28;20130;-75
2022/06/30 05:38:27;;;;;;;8.07;4.93;;;;;;;;;;5035479;28;20039;-74
2022/06/30 05:40:53;;;;;;;6.65;5.03;;;;;;;;;;5050756;28;20059;-75
2022/06/30 05:43:19;;;;;;;5.97;5.18;;;;;;;;;;5052869;28;20493;-74
2022/06/30 05:45:46;;;;;;;5.80;5.20;;;;;;;;;;5050941;28;20464;-75
2022/06/30 05:48:12;;;;;;;6.88;5.22;;;;;;;;;;5050970;28;20493;-76
2022/06/30 05:50:38;;;;;;;6.47;5.45;;;;;;;;;;5052160;28;20041;-75
2022/06/30 05:53:04;;;;;;;7.85;5.18;;;;;;;;;;5033942;28;20067;-74
2022/06/30 05:55:30;;;;;;;5.88;5.20;;;;;;;;;;5052627;28;20053;-77
2022/06/30 05:57:57;;;;;;;8.57;5.18;;;;;;;;;;5050069;28;20084;-75
2022/06/30 06:00:24;;;;;;;7.25;5.50;;;;;;;;;;5052339;28;20033;-75
2022/06/30 06:02:51;;;;;;;6.45;5.68;;;;;;;;;;5050082;28;20033;-75
2022/06/30 06:05:17;;;;;;;6.40;5.75;;;;;;;;;;5032933;28;20041;-76
2022/06/30 06:07:43;;;;;;;9.38;6.00;;;;;;;;;;5050723;28;20056;-76
2022/06/30 06:10:10;;;;;;;8.05;5.85;;;;;;;;;;5044538;28;20037;-75
2022/06/30 06:12:36;;;;;;;8.27;6.03;;;;;;;;;;5050279;28;20047;-76
2022/06/30 06:15:03;;;;;;;8.00;5.82;;;;;;;;;;5050019;28;20040;-75
2022/06/30 06:17:30;;;;;;;8.00;6.10;;;;;;;;;;5049678;28;20508;-75
2022/06/30 06:19:56;;;;;;;8.15;6.55;;;;;;;;;;5049224;28;20044;-75
2022/06/30 06:22:22;;;;;;;7.40;6.57;;;;;;;;;;5050720;28;20091;-75
2022/06/30 06:24:48;;;;;;;7.57;6.75;;;;;;;;;;5033583;28;20052;-75
2022/06/30 06:27:14;;;;;;;7.47;6.75;;;;;;;;;;5049726;28;20045;-75
2022/06/30 06:29:41;;;;;;;10.57;7.40;;;;;;;;;;5049840;28;20037;-75
2022/06/30 06:32:07;;;;;;;9.30;7.50;;;;;;;;;;5050437;28;20047;-75
2022/06/30 06:34:33;;;;;;;10.85;7.28;;;;;;;;;;5050204;28;20556;-76
2022/06/30 06:36:59;;;;;;;9.57;7.50;;;;;;;;;;5049789;28;20060;-76
2022/06/30 06:39:25;;;;;;;8.50;7.25;;;;;;;;;;5050204;28;20120;-76
2022/06/30 06:41:51;;;;;;;8.90;8.00;;;;;;;;;;5033361;28;20059;-76
2022/06/30 06:44:18;;;;;;;10.50;7.10;;;;;;;;;;5049833;28;20102;-76
2022/06/30 06:46:44;;;;;;;8.85;7.35;;;;;;;;;;5050213;28;20041;-75
2022/06/30 06:49:10;;;;;;;9.07;7.03;;;;;;;;;;5049847;28;20068;-76
2022/06/30 06:51:36;;;;;;;9.50;7.45;;;;;;;;;;5050035;28;20040;-75
2022/06/30 06:54:02;;;;;;;8.73;7.35;;;;;;;;;;5050207;28;20053;-75
2022/06/30 06:56:28;;;;;;;7.97;7.13;;;;;;;;;;5049906;28;20048;-76
2022/06/30 06:58:54;;;;;;;10.55;7.50;;;;;;;;;;5049340;28;20041;-76
2022/06/30 07:01:21;;;;;;;10.13;7.65;;;;;;;;;;5049017;28;20033;-75
2022/06/30 07:03:47;;;;;;;8.13;7.32;;;;;;;;;;5034023;28;20547;-76
2022/06/30 07:06:13;;;;;;;9.40;7.40;;;;;;;;;;5049700;28;20045;-74
2022/06/30 07:08:39;;;;;;;9.38;8.38;;;;;;;;;;5045049;28;20114;-75
2022/06/30 07:11:05;;;;;;;10.82;8.57;;;;;;;;;;5032770;28;20041;-76
2022/06/30 07:13:32;;;;;;;10.27;8.18;;;;;;;;;;5049047;28;20041;-75
2022/06/30 07:15:59;;;;;;;8.60;7.03;;;;;;;;;;5050046;28;20501;-76
2022/06/30 07:18:25;;;;;;;9.57;8.00;;;;;;;;;;5048929;28;20033;-78
2022/06/30 07:20:51;;;;;;;8.63;7.68;;;;;;;;;;5033490;28;20378;-79
2022/06/30 07:23:17;;;;;;;9.20;8.20;;;;;;;;;;5032340;28;20041;-79
2022/06/30 07:25:43;;;;;;;9.02;8.07;;;;;;;;;;5032918;28;20041;-78
2022/06/30 07:28:09;;;;;;;11.32;7.47;;;;;;;;;;5032337;28;20048;-78
2022/06/30 07:30:35;;;;;;;10.30;8.15;;;;;;;;;;5052873;28;20041;-78
2022/06/30 07:33:01;;;;;;;11.93;9.05;;;;;;;;;;5037376;28;20045;-77
2022/06/30 07:35:27;;;;;;;9.57;7.65;;;;;;;;;;5020119;28;20485;-76
2022/06/30 07:37:54;;;;;;;11.88;8.55;;;;;;;;;;5054324;28;20037;-76
2022/06/30 07:40:20;;;;;;;11.05;8.70;;;;;;;;;;5053909;28;20481;-76
2022/06/30 07:42:47;;;;;;;10.10;7.93;;;;;;;;;;5037577;28;20064;-77
2022/06/30 07:45:13;;;;;;;13.05;8.55;;;;;;;;;;5054824;28;20052;-76
2022/06/30 07:47:41;;;;;;;11.45;9.57;;;;;;;;;;5054283;28;20041;-75
2022/06/30 07:50:07;;;;;;;9.70;8.70;;;;;;;;;;5054449;28;20098;-75
2022/06/30 07:52:34;;;;;;;10.43;9.35;;;;;;;;;;5054380;28;20079;-75
2022/06/30 07:55:00;;;;;;;12.80;10.23;;;;;;;;;;5052892;28;20509;-76
2022/06/30 07:57:27;;;;;;;10.70;9.60;;;;;;;;;;5052740;28;20079;-76
2022/06/30 07:59:54;;;;;;;11.48;8.82;;;;;;;;;;5052451;28;20052;-76
2022/06/30 08:02:20;;;;;;;11.43;9.43;;;;;;;;;;5052595;28;20029;-76
2022/06/30 08:04:46;;;;;;;11.50;9.70;;;;;;;;;;5053178;28;20045;-76
2022/06/30 08:07:12;;;;;;;10.98;9.25;;;;;;;;;;5052477;28;20048;-77
2022/06/30 08:09:38;;;;;;;17.02;10.10;;;;;;;;;;5052917;28;20040;-77
2022/06/30 08:12:06;;;;;;;11.40;9.95;;;;;;;;;;5052472;28;20045;-76
2022/06/30 08:14:32;;;;;;;10.63;8.30;;;;;;;;;;5052345;28;20056;-78
2022/06/30 08:16:59;;;;;;;13.10;9.05;;;;;;;;;;5052326;28;20037;-77
2022/06/30 08:19:25;;;;;;;10.85;9.75;;;;;;;;;;5053785;28;20076;-77
2022/06/30 08:21:51;;;;;;;11.98;10.50;;;;;;;;;;5052145;28;20040;-76
2022/06/30 08:24:17;;;;;;;13.55;10.85;;;;;;;;;;5035738;28;20041;-76
2022/06/30 08:26:44;;;;;;;12.23;9.85;;;;;;;;;;5052146;28;20045;-77
2022/06/30 08:29:12;;;;;;;10.95;9.60;;;;;;;;;;5052221;28;20555;-75
2022/06/30 08:31:39;;;;;;;11.10;10.00;;;;;;;;;;5052396;28;20037;-76
2022/06/30 08:34:05;;;;;;;10.25;9.25;;;;;;;;;;5052458;28;20049;-76
2022/06/30 08:36:31;;;;;;;15.23;10.98;;;;;;;;;;5052336;28;20523;-76
2022/06/30 08:38:57;;;;;;;11.45;10.35;;;;;;;;;;5051792;28;20234;-73
2022/06/30 08:44:09;;;;;;;9.38;7.90;;;;;;;;;;5052522;28;20064;-76
2022/06/30 08:46:37;;;;;;;14.23;9.15;;;;;;;;;;5022377;28;20099;-77
2022/06/30 08:49:03;;;;;;;12.38;8.57;;;;;;;;;;5052807;28;20141;-76
2022/06/30 08:51:30;;;;;;;10.43;7.72;;;;;;;;;;5034760;28;20090;-76
2022/06/30 08:54:00;;;;;;;9.75;8.63;;;;;;;;;;5051592;28;20089;-78
2022/06/30 08:56:30;;;;;;;8.18;7.00;;;;;;;;;;5085045;28;20076;-78
2022/06/30 08:58:57;;;;;;;11.68;7.95;;;;;;;;;;5035667;28;20044;-76
2022/06/30 09:01:24;;;;;;;12.20;8.60;;;;;;;;;;5051523;28;20373;-77
2022/06/30 09:03:50;;;;;;;9.48;7.35;;;;;;;;;;5053538;28;20401;-77
2022/06/30 09:06:17;;;;;;;10.88;9.65;;;;;;;;;;5053391;28;20076;-77
2022/06/30 09:08:43;;;;;;;12.93;9.07;;;;;;;;;;5051955;28;20045;-77
2022/06/30 09:11:09;;;;;;;11.95;8.60;;;;;;;;;;5052145;28;20110;-77
2022/06/30 09:13:39;;;;;;;9.60;8.60;;;;;;;;;;5049469;28;20178;-77
2022/06/30 09:16:05;;;;;;;16.88;9.55;;;;;;;;;;5047676;28;20085;-77
2022/06/30 09:18:31;;;;;;;11.32;9.43;;;;;;;;;;5051629;28;20097;-77
2022/06/30 09:20:59;;;;;;;12.57;9.02;;;;;;;;;;5050999;28;20501;-78
2022/06/30 09:23:29;;;;;;;10.57;9.43;;;;;;;;;;5047704;28;20390;-78
2022/06/30 09:26:00;;;;;;;10.30;9.23;;;;;;;;;;5051479;28;20068;-76
2022/06/30 09:28:39;;;;;;;13.23;10.35;;;;;;;;;;5053086;28;20048;-76
2022/06/30 09:31:05;;;;;;;14.10;10.20;;;;;;;;;;5052893;28;20090;-76
2022/06/30 09:33:35;;;;;;;13.63;12.10;;;;;;;;;;5050095;28;20045;-77
2022/06/30 09:36:19;;;;;;;16.50;12.02;;;;;;;;;;5051126;28;20040;-77
2022/06/30 09:39:04;;;;;;;14.45;11.38;;;;;;;;;;5051029;28;20036;-77
2022/06/30 09:41:31;;;;;;;15.23;11.23;;;;;;;;;;5046036;28;20045;-76
2022/06/30 09:43:57;;;;;;;16.58;11.73;;;;;;;;;;5051802;28;20047;-76
2022/06/30 09:46:23;;;;;;;15.45;12.38;;;;;;;;;;5049591;28;20040;-77
2022/06/30 09:48:49;;;;;;;13.52;10.50;;;;;;;;;;5051460;28;20512;-73
2022/06/30 09:51:17;;;;;;;12.65;9.57;;;;;;;;;;5052205;28;20037;-75
2022/06/30 09:53:43;;;;;;;13.05;10.02;;;;;;;;;;5038663;28;20098;-75
2022/06/30 09:56:11;;;;;;;13.27;9.88;;;;;;;;;;5052286;28;20037;-76
2022/06/30 09:58:40;;;;;;;9.93;8.52;;;;;;;;;;5082243;28;20094;-76
2022/06/30 10:01:07;;;;;;;16.17;10.50;;;;;;;;;;5052110;28;20112;-76
2022/06/30 10:03:33;;;;;;;14.45;12.32;;;;;;;;;;5051137;28;20071;-77
2022/06/30 10:06:15;;;;;;;17.63;12.63;;;;;;;;;;5050563;28;20131;-76
2022/06/30 10:08:42;;;;;;;18.40;13.15;;;;;;;;;;5045052;28;20421;-77
2022/06/30 10:11:08;;;;;;;14.05;12.25;;;;;;;;;;5050861;28;20040;-76
2022/06/30 10:13:36;;;;;;;15.10;12.00;;;;;;;;;;5033555;28;20047;-77
2022/06/30 10:16:03;;;;;;;13.98;10.52;;;;;;;;;;5049225;28;20051;-77
2022/06/30 10:18:29;;;;;;;12.40;10.48;;;;;;;;;;5033385;28;20474;-77
2022/06/30 10:20:58;;;;;;;9.88;8.60;;;;;;;;;;5050273;28;20045;-77
2022/06/30 10:23:24;;;;;;;12.20;10.10;;;;;;;;;;5049927;28;20051;-77
2022/06/30 10:25:51;;;;;;;11.65;9.38;;;;;;;;;;5050470;28;20128;-76
2022/06/30 10:28:24;;;;;;;13.32;8.60;;;;;;;;;;5051182;28;20681;-76
2022/06/30 10:30:58;;;;;;;12.18;9.63;;;;;;;;;;5051472;28;20060;-76
2022/06/30 10:33:38;;;;;;;11.27;8.50;;;;;;;;;;5050128;28;20041;-75
2022/06/30 10:36:08;;;;;;;10.07;7.03;;;;;;;;;;5033445;28;20103;-74
2022/06/30 10:38:40;;;;;;;11.02;6.95;;;;;;;;;;5050516;28;20123;-75
2022/06/30 10:41:11;;;;;;;7.82;5.10;;;;;;;;;;5051824;28;20033;-75
2022/06/30 10:43:56;;;;;;;8.40;6.60;;;;;;;;;;5049657;28;20037;-75
2022/06/30 10:46:22;;;;;;;9.30;5.40;;;;;;;;;;5041226;28;20037;-76
2022/06/30 10:48:53;;;;;;;7.10;4.95;;;;;;;;;;5016723;28;20102;-75
2022/06/30 10:51:19;;;;;;;7.93;5.78;;;;;;;;;;5052380;28;20071;-75
2022/06/30 10:53:45;;;;;;;12.18;8.15;;;;;;;;;;5048241;28;20061;-76
2022/06/30 10:56:11;;;;;;;9.52;7.35;;;;;;;;;;5049314;28;20132;-75
2022/06/30 11:09:04;;;;;;;17.08;11.43;;;;;;;;;;5040018;28;20463;-74
2022/06/30 11:11:31;;;;;;;11.98;9.95;;;;;;;;;;5027280;28;20045;-77
2022/06/30 11:14:03;;;;;;;14.23;10.60;;;;;;;;;;5015719;28;20191;-76
2022/06/30 11:16:34;;;;;;;14.05;9.93;;;;;;;;;;5038605;28;20121;-76
2022/06/30 11:19:01;;;;;;;11.70;9.38;;;;;;;;;;5020754;28;20040;-76
2022/06/30 11:21:31;;;;;;;11.48;8.32;;;;;;;;;;5035422;28;20076;-76
2022/06/30 11:24:01;;;;;;;10.88;8.35;;;;;;;;;;5029204;28;20615;-76
2022/06/30 11:29:14;;;;;;;11.30;7.90;;;;;;;;;;5015639;28;20046;-76
2022/06/30 11:31:41;;;;;;;14.75;7.60;;;;;;;;;;5017550;28;20478;-75
2022/06/30 11:34:11;;;;;;;8.65;6.93;;;;;;;;;;5036152;28;20041;-75
2022/06/30 11:36:38;;;;;;;9.38;7.22;;;;;;;;;;5003805;28;20486;-75
2022/06/30 11:39:12;;;;;;;11.60;7.43;;;;;;;;;;5009018;28;20050;-75
2022/06/30 11:41:54;;;;;;;8.70;6.33;;;;;;;;;;5032490;28;20042;-74
2022/06/30 11:44:22;;;;;;;12.25;7.30;;;;;;;;;;5024667;28;20117;-76
2022/06/30 11:46:51;;;;;;;9.77;7.70;;;;;;;;;;5003997;28;20057;-76
2022/06/30 11:49:17;;;;;;;8.43;5.50;;;;;;;;;;5030194;28;20068;-76
2022/06/30 11:51:44;;;;;;;10.38;5.45;;;;;;;;;;5031531;28;20033;-75
2022/06/30 11:54:11;;;;;;;8.00;5.07;;;;;;;;;;5029932;28;20041;-75
2022/06/30 11:56:47;;;;;;;9.10;6.22;;;;;;;;;;5031742;28;20077;-76
2022/06/30 11:59:13;;;;;;;10.45;6.93;;;;;;;;;;5029730;28;20041;-76
2022/06/30 12:01:41;;;;;;;12.13;6.93;;;;;;;;;;5024638;28;20120;-76
2022/06/30 12:04:17;;;;;;;10.02;7.25;;;;;;;;;;5010679;28;20033;-75
2022/06/30 12:06:43;;;;;;;9.73;7.32;;;;;;;;;;5012424;28;20460;-76
2022/06/30 12:09:10;;;;;;;10.60;7.82;;;;;;;;;;5006639;28;20687;-76
2022/06/30 12:11:37;;;;;;;10.15;6.50;;;;;;;;;;5028076;28;20038;-75
2022/06/30 12:14:03;;;;;;;9.38;5.88;;;;;;;;;;5028652;28;20045;-76
2022/06/30 12:16:29;;;;;;;12.60;7.18;;;;;;;;;;5032022;28;20029;-78
2022/06/30 12:18:55;;;;;;;8.70;6.00;;;;;;;;;;5013351;28;20037;-78
2022/06/30 12:21:22;;;;;;;9.55;6.57;;;;;;;;;;5013190;28;20116;-78
2022/06/30 12:23:48;;;;;;;10.20;6.93;;;;;;;;;;5014965;28;20038;-78
2022/06/30 12:26:15;;;;;;;10.68;7.57;;;;;;;;;;5025086;28;20053;-77
2022/06/30 12:28:51;;;;;;;11.45;7.85;;;;;;;;;;5016774;28;20109;-73
2022/06/30 12:31:33;;;;;;;12.70;7.38;;;;;;;;;;5015084;28;20034;-75
2022/06/30 12:34:00;;;;;;;12.10;7.47;;;;;;;;;;5002906;28;20060;-77
2022/06/30 12:36:35;;;;;;;12.25;7.78;;;;;;;;;;5011251;28;20184;-78
2022/06/30 12:39:01;;;;;;;;;;;;;;;;;;5028755;28;20124;-77
2022/06/30 12:41:27;;;;;;;12.85;7.63;;;;;;;;;;5032229;28;20012;-78
2022/06/30 12:43:53;;;;;;;12.25;7.55;;;;;;;;;;5032133;28;20040;-73
2022/06/30 12:46:19;;;;;;;9.23;6.53;;;;;;;;;;5033695;28;20389;-73
2022/06/30 12:48:53;;;;;;;8.82;5.63;;;;;;;;;;5016359;28;20053;-73
2022/06/30 12:51:29;;;;;;;9.20;5.78;;;;;;;;;;5033531;28;20045;-76
2022/06/30 12:54:08;;;;;;;9.77;6.05;;;;;;;;;;5033765;28;20490;-77
2022/06/30 12:56:35;;;;;;;9.55;5.70;;;;;;;;;;5002856;28;20046;-74
2022/06/30 12:59:03;;;;;;;8.98;5.22;;;;;;;;;;5033708;28;20077;-77
2022/06/30 13:01:32;;;;;;;8.85;4.80;;;;;;;;;;5015122;28;20049;-72
2022/06/30 13:03:58;;;;;;;8.00;4.18;;;;;;;;;;5015724;28;20033;-75
2022/06/30 13:06:25;;;;;;;6.95;4.00;;;;;;;;;;5015181;28;20120;-74
2022/06/30 13:08:51;;;;;;;7.55;4.75;;;;;;;;;;5015750;28;20119;-74
2022/06/30 13:11:24;;;;;;;9.20;4.60;;;;;;;;;;5015164;28;20053;-72
2022/06/30 13:13:51;;;;;;;6.20;3.67;;;;;;;;;;5015765;28;20076;-76
2022/06/30 13:16:17;;;;;;;8.45;3.67;;;;;;;;;;5014957;28;20045;-77
2022/06/30 13:18:46;;;;;;;8.02;3.78;;;;;;;;;;5015832;28;20494;-77
2022/06/30 13:21:12;;;;;;;7.55;3.00;;;;;;;;;;5031482;28;20048;-74
2022/06/30 13:23:38;;;;;;;4.85;2.45;;;;;;;;;;5015443;28;20517;-74
2022/06/30 13:26:04;;;;;;;6.70;3.30;;;;;;;;;;5002719;28;20124;-77
2022/06/30 13:28:30;;;;;;;4.65;2.83;;;;;;;;;;4994470;28;20060;-76
2022/06/30 13:30:57;;;;;;;5.70;2.53;;;;;;;;;;4996158;28;20525;-76
2022/06/30 13:33:23;;;;;;;6.15;3.30;;;;;;;;;;4995050;28;20398;-72
2022/06/30 13:35:49;;;;;;;9.23;3.20;;;;;;;;;;4995730;28;20552;-71
2022/06/30 13:38:15;;;;;;;7.43;3.47;;;;;;;;;;4995124;28;20041;-77
2022/06/30 13:40:41;;;;;;;8.75;3.45;;;;;;;;;;4979436;28;20475;-77
2022/06/30 13:43:07;;;;;;;5.53;3.40;;;;;;;;;;4995189;28;20034;-76
2022/06/30 13:45:33;;;;;;;7.07;4.03;;;;;;;;;;4995029;28;20545;-74
2022/06/30 13:47:59;;;;;;;6.75;2.78;;;;;;;;;;4995263;28;20042;-77
2022/06/30 13:50:26;;;;;;;5.38;2.97;;;;;;;;;;4995025;28;20045;-76
2022/06/30 13:52:52;;;;;;;5.22;2.50;;;;;;;;;;4995571;28;20034;-77
2022/06/30 13:55:18;;;;;;;5.55;2.50;;;;;;;;;;5012519;28;20173;-71
2022/06/30 13:57:44;;;;;;;4.10;2.58;;;;;;;;;;4992513;28;20310;-72
2022/06/30 14:00:10;;;;;;;6.15;2.55;;;;;;;;;;4983983;28;20056;-73
2022/06/30 14:02:36;;;;;;;7.18;3.08;;;;;;;;;;4994837;28;20104;-72
2022/06/30 14:05:03;;;;;;;6.20;2.60;;;;;;;;;;4995108;28;20129;-72
2022/06/30 14:07:29;;;;;;;6.40;2.20;;;;;;;;;;4994499;28;20045;-72
2022/06/30 14:09:55;;;;;;;6.47;3.17;;;;;;;;;;4995174;28;20502;-76
2022/06/30 14:12:21;;;;;;;5.28;2.72;;;;;;;;;;4994915;28;20049;-76
2022/06/30 14:14:48;;;;;;;5.43;2.40;;;;;;;;;;4995069;28;21664;-77
2022/06/30 14:17:18;;;;;;;5.57;2.83;;;;;;;;;;4995216;28;20038;-77
2022/06/30 14:19:48;;;;;;;6.93;2.65;;;;;;;;;;4995518;28;20042;-78
2022/06/30 14:22:14;;;;;;;8.95;2.53;;;;;;;;;;5012374;28;20064;-76
2022/06/30 14:24:40;;;;;;;5.07;2.80;;;;;;;;;;5012048;28;20034;-76
2022/06/30 14:27:06;;;;;;;5.15;2.10;;;;;;;;;;4981481;28;20156;-77
2022/06/30 14:29:32;;;;;;;5.10;2.53;;;;;;;;;;4994310;28;20113;-76
2022/06/30 14:31:59;;;;;;;5.63;2.30;;;;;;;;;;4994585;28;20128;-76
2022/06/30 14:34:25;;;;;;;3.92;2.33;;;;;;;;;;5010502;28;20045;-76
2022/06/30 14:37:04;;;;;;;8.38;2.72;;;;;;;;;;4994709;28;20038;-72
2022/06/30 14:39:45;;;;;;;4.53;2.80;;;;;;;;;;5013521;28;20154;-78
2022/06/30 14:44:57;;;;;;;5.97;2.80;;;;;;;;;;5015030;28;20042;-75
2022/06/30 14:47:23;;;;;;;4.28;2.20;;;;;;;;;;5015931;28;20289;-75
2022/06/30 14:49:49;;;;;;;6.03;2.40;;;;;;;;;;4998941;28;20506;-75
2022/06/30 14:52:15;;;;;;;4.35;1.90;;;;;;;;;;4998582;28;20120;-76
2022/06/30 14:54:41;;;;;;;5.38;2.15;;;;;;;;;;4998231;28;20034;-75
2022/06/30 14:57:08;;;;;;;4.15;2.10;;;;;;;;;;5016261;28;20402;-76
2022/06/30 14:59:34;;;;;;;4.50;2.20;;;;;;;;;;4997799;28;20068;-76
2022/06/30 15:02:00;;;;;;;4.85;2.45;;;;;;;;;;4998563;28;20038;-76